Time;durP1;ratioP1;P1;durP2;ratioP2;P2;SDS_P1;SDS_P2;PMS_P1;PMS_P2;Temp;Humidity;BMP_temperature;BMP_pressure;BME280_temperature;BME280_humidity;BME280_pressure;Samples;Min_cycle;Max_cycle;Signal;HPM_P1;HPM_P2
2021/04/19 00:01:21;;;;;;;1.67;1.50;;;19.60;51.70;;;;;;5073263;28;20074;-36
2021/04/19 00:03:46;;;;;;;1.92;1.75;;;19.50;52.50;;;;;;5071722;28;20390;-38
2021/04/19 00:06:12;;;;;;;1.52;1.40;;;19.50;53.10;;;;;;5077258;28;20035;-33
2021/04/19 00:08:38;;;;;;;1.50;1.40;;;19.40;52.80;;;;;;5077115;28;20025;-35
2021/04/19 00:11:03;;;;;;;2.33;1.33;;;19.40;52.90;;;;;;5076628;28;20036;-36
2021/04/19 00:13:29;;;;;;;2.22;1.30;;;19.40;51.90;;;;;;5074867;28;20105;-36
2021/04/19 00:15:54;;;;;;;1.15;1.08;;;19.50;51.60;;;;;;5073583;28;20079;-41
2021/04/19 00:18:20;;;;;;;1.30;1.20;;;19.50;51.30;;;;;;5076686;28;20507;-39
2021/04/19 00:20:46;;;;;;;1.88;1.23;;;19.50;51.10;;;;;;5083891;28;20055;-37
2021/04/19 00:23:11;;;;;;;1.33;1.23;;;19.60;50.80;;;;;;5083057;28;20406;-38
2021/04/19 00:25:37;;;;;;;2.15;1.25;;;19.50;50.60;;;;;;5075472;28;20032;-32
2021/04/19 00:28:03;;;;;;;1.23;1.13;;;19.60;50.50;;;;;;5074844;28;20029;-37
2021/04/19 00:30:28;;;;;;;1.60;1.00;;;19.50;50.50;;;;;;5086235;28;20111;-36
2021/04/19 00:32:54;;;;;;;0.90;0.90;;;19.60;50.30;;;;;;5086374;28;20111;-36
2021/04/19 00:35:20;;;;;;;1.52;1.42;;;19.50;50.40;;;;;;5083430;28;20032;-34
2021/04/19 00:37:45;;;;;;;1.60;0.93;;;19.50;50.20;;;;;;5076266;28;20024;-37
2021/04/19 00:40:13;;;;;;;1.13;1.02;;;19.50;50.20;;;;;;5072024;28;20028;-36
2021/04/19 00:42:39;;;;;;;0.90;0.90;;;19.40;50.30;;;;;;5076107;28;20070;-35
2021/04/19 00:45:06;;;;;;;1.38;1.27;;;19.40;50.30;;;;;;5076723;28;20417;-38
2021/04/19 00:47:31;;;;;;;1.20;1.20;;;19.40;50.20;;;;;;5075183;28;20083;-38
2021/04/19 00:49:58;;;;;;;1.10;1.10;;;19.40;50.20;;;;;;5082742;28;20028;-38
2021/04/19 00:52:23;;;;;;;1.00;1.00;;;19.40;50.20;;;;;;5073396;28;20017;-38
2021/04/19 00:54:49;;;;;;;3.60;1.10;;;19.30;50.20;;;;;;5077341;28;20021;-34
2021/04/19 00:57:14;;;;;;;1.05;0.98;;;19.30;50.10;;;;;;5090445;28;20032;-34
2021/04/19 00:59:40;;;;;;;1.13;1.00;;;19.40;50.10;;;;;;5084176;28;20028;-36
2021/04/19 01:02:05;;;;;;;1.42;0.90;;;19.40;50.00;;;;;;5081790;28;20040;-37
2021/04/19 01:04:31;;;;;;;1.05;0.98;;;19.40;50.00;;;;;;5078418;28;20379;-36
2021/04/19 01:06:57;;;;;;;1.08;0.98;;;19.30;49.90;;;;;;5077152;28;20085;-38
2021/04/19 01:09:23;;;;;;;1.02;1.00;;;19.30;50.00;;;;;;5108805;28;20016;-35
2021/04/19 01:11:48;;;;;;;0.98;0.82;;;19.30;50.00;;;;;;5079342;28;20035;-40
2021/04/19 01:14:14;;;;;;;1.20;1.10;;;19.40;49.80;;;;;;5081581;28;20051;-35
2021/04/19 01:16:39;;;;;;;1.30;1.20;;;19.40;49.80;;;;;;5079393;28;20081;-35
2021/04/19 01:19:05;;;;;;;1.38;1.10;;;19.30;49.80;;;;;;5074454;28;20682;-36
2021/04/19 01:21:30;;;;;;;0.90;0.90;;;19.30;49.80;;;;;;5078828;28;20041;-33
2021/04/19 01:23:56;;;;;;;1.10;1.00;;;19.30;49.80;;;;;;5079561;28;20401;-36
2021/04/19 01:26:22;;;;;;;0.95;0.95;;;19.30;49.70;;;;;;5079877;28;20033;-37
2021/04/19 01:28:47;;;;;;;1.10;1.00;;;19.30;49.60;;;;;;5076599;28;20027;-37
2021/04/19 01:31:13;;;;;;;0.88;0.88;;;19.20;49.70;;;;;;5075332;28;20051;-34
2021/04/19 01:33:38;;;;;;;1.05;0.85;;;19.20;49.90;;;;;;5079175;28;20414;-34
2021/04/19 01:36:04;;;;;;;0.93;0.93;;;19.20;49.70;;;;;;5079468;28;20112;-38
2021/04/19 01:38:30;;;;;;;1.30;1.05;;;19.30;49.60;;;;;;5079433;28;20103;-35
2021/04/19 01:40:56;;;;;;;0.73;0.73;;;19.30;49.60;;;;;;5078935;28;20115;-38
2021/04/19 01:43:21;;;;;;;0.85;0.85;;;19.20;49.70;;;;;;5081582;28;20024;-38
2021/04/19 01:45:51;;;;;;;0.82;0.80;;;19.20;49.50;;;;;;5077410;28;20021;-36
2021/04/19 01:48:19;;;;;;;0.85;0.85;;;19.20;49.60;;;;;;5089188;28;20028;-34
2021/04/19 01:50:45;;;;;;;0.85;0.85;;;19.30;49.60;;;;;;5079146;28;20025;-35
2021/04/19 01:53:10;;;;;;;1.10;1.10;;;19.20;49.60;;;;;;5111983;27;20039;-34
2021/04/19 01:55:36;;;;;;;0.93;0.93;;;19.20;50.20;;;;;;5077846;28;20103;-34
2021/04/19 01:58:07;;;;;;;0.77;0.77;;;19.20;49.80;;;;;;5090008;28;20359;-36
2021/04/19 02:00:33;;;;;;;1.00;1.00;;;19.20;49.60;;;;;;5110691;27;20036;-35
2021/04/19 02:03:12;;;;;;;0.85;0.85;;;19.20;49.60;;;;;;5074533;28;20430;-36
2021/04/19 02:05:53;;;;;;;1.05;1.05;;;19.20;49.50;;;;;;5078833;28;20027;-38
2021/04/19 02:08:30;;;;;;;1.00;1.00;;;19.20;49.30;;;;;;5079287;28;20027;-33
2021/04/19 02:11:11;;;;;;;1.00;1.00;;;19.20;49.90;;;;;;5112462;27;20035;-35
2021/04/19 02:13:42;;;;;;;0.93;0.80;;;19.30;49.20;;;;;;5078094;28;20064;-36
2021/04/19 02:16:20;;;;;;;1.38;1.17;;;19.20;49.20;;;;;;5081730;28;20020;-33
2021/04/19 02:19:19;;;;;;;0.90;0.90;;;19.20;49.30;;;;;;5122708;27;20043;-36
2021/04/19 02:21:46;;;;;;;0.82;0.82;;;19.20;49.40;;;;;;5111321;27;20048;-34
2021/04/19 02:24:14;;;;;;;1.10;1.10;;;19.10;49.40;;;;;;5078961;28;20035;-38
2021/04/19 02:27:01;;;;;;;0.90;0.90;;;19.10;49.50;;;;;;5082025;28;20487;-35
2021/04/19 02:29:41;;;;;;;1.88;0.80;;;19.10;49.40;;;;;;5079992;28;20043;-34
2021/04/19 02:32:10;;;;;;;1.08;1.00;;;19.10;49.30;;;;;;5070457;28;20078;-34
2021/04/19 02:34:36;;;;;;;0.80;0.80;;;19.00;49.40;;;;;;5073894;28;20103;-36
2021/04/19 02:37:02;;;;;;;0.80;0.80;;;19.10;49.50;;;;;;5123397;27;20107;-35
2021/04/19 02:39:29;;;;;;;1.33;0.90;;;19.10;49.10;;;;;;5077880;28;20023;-36
2021/04/19 02:41:54;;;;;;;0.93;0.93;;;19.10;49.10;;;;;;5076711;28;20048;-37
2021/04/19 02:44:20;;;;;;;0.90;0.90;;;19.10;49.20;;;;;;5077197;28;20035;-36
2021/04/19 02:46:48;;;;;;;0.68;0.68;;;19.10;49.10;;;;;;5072492;28;20043;-38
2021/04/19 02:49:14;;;;;;;1.00;0.90;;;19.10;49.30;;;;;;5088599;28;20095;-36
2021/04/19 02:51:41;;;;;;;0.73;0.73;;;19.10;49.10;;;;;;5104944;28;20027;-37
2021/04/19 02:54:07;;;;;;;0.90;0.90;;;19.10;49.10;;;;;;5073425;28;20031;-34
2021/04/19 02:56:34;;;;;;;0.68;0.68;;;19.10;49.20;;;;;;5114503;27;20032;-32
2021/04/19 02:59:02;;;;;;;1.10;0.70;;;19.10;49.20;;;;;;5069837;28;20111;-34
2021/04/19 03:01:29;;;;;;;0.77;0.77;;;19.10;49.80;;;;;;5073472;28;20054;-34
2021/04/19 03:03:58;;;;;;;0.82;0.82;;;19.00;49.30;;;;;;5089452;28;20028;-38
2021/04/19 03:06:24;;;;;;;0.63;0.63;;;19.10;49.70;;;;;;5077373;28;20478;-32
2021/04/19 03:08:51;;;;;;;0.90;0.90;;;19.10;49.00;;;;;;5078350;28;20085;-34
2021/04/19 03:11:22;;;;;;;0.93;0.93;;;19.10;48.90;;;;;;5075882;28;20052;-39
2021/04/19 03:13:48;;;;;;;1.00;1.00;;;19.10;48.90;;;;;;5079403;28;20114;-35
2021/04/19 03:16:14;;;;;;;1.30;1.30;;;19.00;49.10;;;;;;5082290;28;20170;-33
2021/04/19 03:18:39;;;;;;;0.70;0.70;;;19.10;49.10;;;;;;5088130;28;20028;-36
2021/04/19 03:21:06;;;;;;;0.98;0.98;;;19.00;49.10;;;;;;5082085;28;20032;-37
2021/04/19 03:23:49;;;;;;;1.00;1.00;;;19.00;49.90;;;;;;5097653;28;20477;-35
2021/04/19 03:26:16;;;;;;;0.90;0.90;;;19.00;49.30;;;;;;5094081;28;20059;-37
2021/04/19 03:28:46;;;;;;;1.30;1.30;;;19.00;49.10;;;;;;5091475;28;20028;-37
2021/04/19 03:31:20;;;;;;;1.00;0.90;;;19.00;49.00;;;;;;5094060;28;20028;-36
2021/04/19 03:33:46;;;;;;;1.35;1.25;;;18.90;49.70;;;;;;5100636;28;20035;-36
2021/04/19 03:36:11;;;;;;;0.80;0.80;;;18.90;49.10;;;;;;5096964;28;20496;-38
2021/04/19 03:38:37;;;;;;;0.88;0.88;;;19.00;49.10;;;;;;5098465;28;20051;-35
2021/04/19 03:41:03;;;;;;;0.60;0.60;;;19.00;49.10;;;;;;5076101;28;20036;-35
2021/04/19 03:43:28;;;;;;;0.70;0.70;;;19.00;49.00;;;;;;5087757;28;20028;-34
2021/04/19 03:45:55;;;;;;;0.77;0.77;;;19.00;49.00;;;;;;5074608;28;20020;-35
2021/04/19 03:48:21;;;;;;;0.95;0.95;;;19.00;48.90;;;;;;5061248;28;20025;-35
2021/04/19 03:50:55;;;;;;;0.98;0.98;;;19.00;49.00;;;;;;5084225;28;20103;-35
2021/04/19 03:53:22;;;;;;;;;;;19.00;49.00;;;;;;5079298;28;20031;-37
2021/04/19 03:55:47;;;;;;;0.90;0.90;;;18.90;49.10;;;;;;5077266;28;19908;-38
2021/04/19 03:58:13;;;;;;;0.90;0.90;;;19.00;48.90;;;;;;5088611;28;20035;-39
2021/04/19 04:00:40;;;;;;;0.88;0.88;;;19.00;48.90;;;;;;5083653;28;20032;-35
2021/04/19 04:03:05;;;;;;;0.90;0.90;;;18.90;49.00;;;;;;5086114;28;20032;-34
2021/04/19 04:05:31;;;;;;;0.82;0.82;;;19.00;48.80;;;;;;5089234;28;20035;-34
2021/04/19 04:07:56;;;;;;;0.73;0.73;;;19.00;49.10;;;;;;5086333;28;20511;-35
2021/04/19 04:10:22;;;;;;;0.63;0.63;;;19.00;49.00;;;;;;5072389;28;20043;-38
2021/04/19 04:12:48;;;;;;;1.00;0.95;;;18.90;49.10;;;;;;5088793;28;20020;-38
2021/04/19 04:15:14;;;;;;;0.70;0.70;;;18.90;49.10;;;;;;5109871;28;20046;-39
2021/04/19 04:17:39;;;;;;;0.90;0.90;;;18.90;48.80;;;;;;5076771;28;20379;-36
2021/04/19 04:20:06;;;;;;;1.00;1.00;;;18.90;49.00;;;;;;5076779;28;20039;-38
2021/04/19 04:22:31;;;;;;;0.82;0.82;;;18.90;49.10;;;;;;5073873;28;20114;-34
2021/04/19 04:24:58;;;;;;;0.80;0.80;;;18.80;49.10;;;;;;5121736;28;20062;-36
2021/04/19 04:27:23;;;;;;;0.77;0.77;;;18.80;49.00;;;;;;5085511;28;20028;-35
2021/04/19 04:29:49;;;;;;;0.80;0.80;;;18.80;49.20;;;;;;5086824;28;20561;-35
2021/04/19 04:32:14;;;;;;;0.80;0.80;;;18.80;49.10;;;;;;5088478;28;20070;-39
2021/04/19 04:34:40;;;;;;;0.90;0.90;;;18.80;49.20;;;;;;5080064;28;20035;-37
2021/04/19 04:37:06;;;;;;;0.70;0.70;;;18.70;49.20;;;;;;5077326;28;20069;-35
2021/04/19 04:39:32;;;;;;;0.75;0.75;;;18.80;49.00;;;;;;5080256;28;20029;-36
2021/04/19 04:41:58;;;;;;;0.80;0.80;;;18.90;49.10;;;;;;5112790;27;20055;-36
2021/04/19 04:44:35;;;;;;;0.80;0.80;;;18.90;48.90;;;;;;5081084;28;20127;-33
2021/04/19 04:47:07;;;;;;;0.93;0.90;;;18.90;48.80;;;;;;5090096;28;20579;-38
2021/04/19 04:49:43;;;;;;;0.90;0.90;;;18.90;48.90;;;;;;5078663;28;20021;-36
2021/04/19 04:52:09;;;;;;;1.00;1.00;;;18.80;49.00;;;;;;5075476;28;20550;-37
2021/04/19 04:54:34;;;;;;;0.75;0.75;;;18.80;49.00;;;;;;5095641;28;20257;-39
2021/04/19 04:57:01;;;;;;;1.20;0.77;;;18.90;48.90;;;;;;5087190;28;20493;-37
2021/04/19 04:59:27;;;;;;;0.82;0.82;;;18.80;48.90;;;;;;5086260;28;20103;-36
2021/04/19 05:01:53;;;;;;;1.15;1.08;;;18.80;49.00;;;;;;5089436;28;20040;-38
2021/04/19 05:04:18;;;;;;;0.88;0.88;;;18.80;48.90;;;;;;5075028;28;20029;-35
2021/04/19 05:06:44;;;;;;;0.93;0.93;;;18.80;48.90;;;;;;5079009;28;20111;-39
2021/04/19 05:09:10;;;;;;;0.90;0.90;;;18.80;49.00;;;;;;5078996;28;20475;-37
2021/04/19 05:11:43;;;;;;;0.90;0.90;;;18.80;49.00;;;;;;5085924;28;20490;-36
2021/04/19 05:14:09;;;;;;;1.15;1.15;;;18.80;48.90;;;;;;5088265;28;20021;-35
2021/04/19 05:16:34;;;;;;;0.95;0.95;;;18.80;49.00;;;;;;5075592;28;20044;-37
2021/04/19 05:19:01;;;;;;;0.80;0.80;;;18.80;48.90;;;;;;5091873;28;20020;-35
2021/04/19 05:21:26;;;;;;;1.10;1.10;;;18.70;48.90;;;;;;5079300;28;20124;-36
2021/04/19 05:23:53;;;;;;;0.93;0.93;;;18.80;49.10;;;;;;5079817;28;20119;-37
2021/04/19 05:26:20;;;;;;;0.88;0.88;;;18.80;48.90;;;;;;5080453;28;20070;-37
2021/04/19 05:28:46;;;;;;;1.10;1.00;;;18.70;48.90;;;;;;5078450;28;20024;-39
2021/04/19 05:31:11;;;;;;;0.90;0.90;;;18.70;49.00;;;;;;5072001;28;20020;-36
2021/04/19 05:33:37;;;;;;;0.80;0.80;;;18.80;48.90;;;;;;5079169;28;20024;-38
2021/04/19 05:36:10;;;;;;;1.08;1.08;;;18.70;49.00;;;;;;5085824;28;20028;-38
2021/04/19 05:38:36;;;;;;;0.80;0.80;;;18.80;49.00;;;;;;5083699;28;20043;-35
2021/04/19 05:41:02;;;;;;;0.80;0.80;;;18.70;48.90;;;;;;5076792;28;20048;-34
2021/04/19 05:43:27;;;;;;;0.70;0.70;;;18.70;49.00;;;;;;5075613;28;20029;-35
2021/04/19 05:45:53;;;;;;;0.77;0.77;;;18.60;49.10;;;;;;5087048;28;20059;-39
2021/04/19 05:48:18;;;;;;;0.80;0.80;;;18.80;48.90;;;;;;5061395;28;20486;-37
2021/04/19 05:50:44;;;;;;;1.02;1.02;;;18.80;48.60;;;;;;5079373;28;20502;-36
2021/04/19 05:53:11;;;;;;;0.77;0.77;;;18.80;48.70;;;;;;5078108;28;20032;-40
2021/04/19 05:55:36;;;;;;;0.70;0.70;;;18.70;48.70;;;;;;5109484;27;20032;-38
2021/04/19 05:58:21;;;;;;;0.70;0.70;;;18.80;48.80;;;;;;5089891;28;20027;-38
2021/04/19 06:00:52;;;;;;;0.90;0.85;;;18.80;48.70;;;;;;5082497;28;20061;-35
2021/04/19 06:03:32;;;;;;;0.80;0.80;;;18.80;49.00;;;;;;5069537;28;20031;-37
2021/04/19 06:06:10;;;;;;;0.90;0.90;;;18.80;48.90;;;;;;5061315;28;20031;-35
2021/04/19 06:08:41;;;;;;;0.80;0.80;;;18.70;49.30;;;;;;5084124;28;20032;-42
2021/04/19 06:11:20;;;;;;;1.10;1.05;;;18.70;49.00;;;;;;5085619;28;20147;-37
2021/04/19 06:13:52;;;;;;;1.33;1.10;;;18.70;49.30;;;;;;5086961;28;20012;-39
2021/04/19 06:16:18;;;;;;;0.98;0.98;;;18.70;49.60;;;;;;5083983;28;20151;-40
2021/04/19 06:18:44;;;;;;;0.70;0.70;;;18.60;50.20;;;;;;5087625;28;20091;-51
2021/04/19 06:21:10;;;;;;;0.82;0.82;;;18.50;51.20;;;;;;5068926;28;20081;-39
2021/04/19 06:23:35;;;;;;;0.75;0.75;;;18.50;50.70;;;;;;5085305;28;20033;-39
2021/04/19 06:26:01;;;;;;;0.88;0.88;;;18.40;50.80;;;;;;5066810;28;20028;-37
2021/04/19 06:28:26;;;;;;;0.90;0.90;;;18.50;50.70;;;;;;5085425;28;20441;-39
2021/04/19 06:30:52;;;;;;;0.88;0.80;;;18.60;50.70;;;;;;5088064;28;20030;-39
2021/04/19 06:33:19;;;;;;;0.98;0.88;;;18.50;50.60;;;;;;5087028;28;20059;-36
2021/04/19 06:35:45;;;;;;;0.77;0.77;;;18.50;50.90;;;;;;5088279;28;20020;-42
2021/04/19 06:38:10;;;;;;;0.70;0.70;;;18.50;50.80;;;;;;5088239;28;20081;-39
2021/04/19 06:40:37;;;;;;;0.75;0.70;;;18.50;50.60;;;;;;5086875;28;20109;-37
2021/04/19 06:43:03;;;;;;;0.65;0.65;;;18.60;50.40;;;;;;5103782;28;20497;-40
2021/04/19 06:45:28;;;;;;;0.80;0.80;;;18.70;50.30;;;;;;5090156;28;20020;-40
2021/04/19 06:47:54;;;;;;;0.70;0.70;;;18.70;50.20;;;;;;5087807;28;20028;-40
2021/04/19 06:50:20;;;;;;;0.57;0.57;;;18.60;50.10;;;;;;5070381;28;20485;-37
2021/04/19 06:52:49;;;;;;;1.38;0.70;;;18.70;50.10;;;;;;5088887;28;20032;-36
2021/04/19 06:55:19;;;;;;;0.70;0.70;;;18.70;50.00;;;;;;5088657;28;20068;-39
2021/04/19 06:57:48;;;;;;;0.80;0.80;;;18.70;50.10;;;;;;5090191;28;20073;-34
2021/04/19 07:00:15;;;;;;;0.68;0.68;;;18.60;50.10;;;;;;5079907;28;20035;-34
2021/04/19 07:02:51;;;;;;;0.68;0.65;;;18.60;50.20;;;;;;5075798;28;20024;-38
2021/04/19 07:05:18;;;;;;;0.82;0.82;;;18.60;50.80;;;;;;5083705;28;20030;-40
2021/04/19 07:07:51;;;;;;;0.80;0.80;;;18.60;50.00;;;;;;5079788;28;20048;-37
2021/04/19 07:10:17;;;;;;;0.80;0.80;;;18.60;50.00;;;;;;5082137;28;20038;-38
2021/04/19 07:12:42;;;;;;;0.70;0.63;;;18.70;50.10;;;;;;5071304;28;20115;-37
2021/04/19 07:15:08;;;;;;;0.70;0.60;;;18.70;49.80;;;;;;5066887;28;20037;-36
2021/04/19 07:17:34;;;;;;;0.70;0.60;;;18.80;49.70;;;;;;5086246;28;20028;-37
2021/04/19 07:19:59;;;;;;;1.02;0.77;;;18.90;49.50;;;;;;5086496;28;20028;-37
2021/04/19 07:22:25;;;;;;;2.13;0.82;;;19.10;48.90;;;;;;5070575;28;20482;-37
2021/04/19 07:24:50;;;;;;;0.77;0.77;;;19.10;49.10;;;;;;5089840;28;20059;-43
2021/04/19 07:27:16;;;;;;;0.95;0.80;;;19.20;49.00;;;;;;5087555;28;20513;-38
2021/04/19 07:29:42;;;;;;;1.08;0.80;;;19.10;49.10;;;;;;5089872;28;20107;-37
2021/04/19 07:32:07;;;;;;;1.63;0.90;;;19.10;49.00;;;;;;5081766;28;20037;-38
2021/04/19 07:34:33;;;;;;;0.70;0.70;;;19.20;48.90;;;;;;5081100;28;20027;-37
2021/04/19 07:37:04;;;;;;;1.30;0.75;;;19.10;49.00;;;;;;5088056;28;20029;-36
2021/04/19 07:39:32;;;;;;;1.00;1.00;;;19.10;49.30;;;;;;5081197;28;20531;-40
2021/04/19 07:42:02;;;;;;;0.93;0.82;;;19.00;49.40;;;;;;5086673;28;20478;-37
2021/04/19 07:44:43;;;;;;;0.73;0.73;;;19.00;49.80;;;;;;5088146;28;20027;-41
2021/04/19 07:47:33;;;;;;;0.85;0.82;;;19.10;49.60;;;;;;5083978;28;20024;-38
2021/04/19 07:50:00;;;;;;;0.60;0.60;;;19.10;49.60;;;;;;5087031;28;20103;-39
2021/04/19 07:52:27;;;;;;;1.48;0.80;;;19.20;49.60;;;;;;5087587;28;20024;-37
2021/04/19 07:55:02;;;;;;;0.80;0.80;;;19.20;49.70;;;;;;5090464;28;20020;-36
2021/04/19 07:57:27;;;;;;;1.13;0.90;;;19.10;50.70;;;;;;5088959;28;20035;-37
2021/04/19 07:59:53;;;;;;;1.55;0.95;;;19.10;50.20;;;;;;5068793;28;20394;-39
2021/04/19 08:02:20;;;;;;;1.30;0.70;;;19.20;50.30;;;;;;5081925;28;20033;-37
2021/04/19 08:04:49;;;;;;;0.70;0.70;;;19.10;50.40;;;;;;5072649;28;20119;-39
2021/04/19 08:07:27;;;;;;;1.08;0.80;;;19.20;50.30;;;;;;5082732;28;20028;-37
2021/04/19 08:09:55;;;;;;;1.80;0.80;;;19.30;50.20;;;;;;5106258;27;20028;-38
2021/04/19 08:12:36;;;;;;;0.70;0.70;;;19.40;50.10;;;;;;5088629;28;20069;-36
2021/04/19 08:15:09;;;;;;;1.50;0.80;;;19.40;49.80;;;;;;5075483;28;20513;-41
2021/04/19 08:17:35;;;;;;;1.00;0.90;;;19.40;49.50;;;;;;5083592;28;20012;-40
2021/04/19 08:20:05;;;;;;;2.55;1.35;;;19.30;50.90;;;;;;5086089;28;20031;-39
2021/04/19 08:22:30;;;;;;;8.68;1.40;;;19.20;54.10;;;;;;5073813;28;20033;-37
2021/04/19 08:25:10;;;;;;;8.45;1.30;;;19.10;55.40;;;;;;5087237;28;20039;-36
2021/04/19 08:27:35;;;;;;;6.40;1.40;;;19.00;56.10;;;;;;5083717;28;20040;-40
2021/04/19 08:30:01;;;;;;;4.05;1.10;;;18.90;55.80;;;;;;5078415;28;20076;-35
2021/04/19 08:32:29;;;;;;;4.60;1.15;;;18.80;55.50;;;;;;5082877;28;20567;-41
2021/04/19 08:34:55;;;;;;;5.97;1.45;;;18.70;55.80;;;;;;5084098;28;20409;-41
2021/04/19 08:37:22;;;;;;;2.63;1.45;;;18.80;54.30;;;;;;5083967;28;20033;-39
2021/04/19 08:39:48;;;;;;;2.30;0.98;;;18.80;53.70;;;;;;5077795;28;20028;-40
2021/04/19 08:42:14;;;;;;;1.88;1.08;;;18.80;52.70;;;;;;5073195;28;20123;-41
2021/04/19 08:44:41;;;;;;;0.80;0.80;;;18.80;53.00;;;;;;5084684;28;20415;-39
2021/04/19 08:47:07;;;;;;;1.95;0.93;;;18.80;52.20;;;;;;5076573;28;20032;-40
2021/04/19 08:49:33;;;;;;;1.25;0.95;;;19.00;52.60;;;;;;5082621;28;20482;-38
2021/04/19 08:51:59;;;;;;;1.17;1.08;;;19.00;52.00;;;;;;5080987;28;20039;-38
2021/04/19 08:54:24;;;;;;;1.58;0.80;;;19.10;52.00;;;;;;5115825;28;20020;-40
2021/04/19 08:56:50;;;;;;;2.47;0.80;;;19.10;52.00;;;;;;5080390;28;20036;-40
2021/04/19 08:59:16;;;;;;;0.80;0.80;;;19.10;51.90;;;;;;5077598;28;20035;-40
2021/04/19 09:01:42;;;;;;;1.13;1.00;;;19.20;51.90;;;;;;5076329;28;20134;-36
2021/04/19 09:04:08;;;;;;;0.80;0.80;;;19.20;51.80;;;;;;4731692;28;9999717;-37
2021/04/19 09:06:45;;;;;;;1.48;0.70;;;19.30;51.50;;;;;;5064847;28;20040;-42
2021/04/19 09:09:13;;;;;;;0.90;0.90;;;19.40;51.50;;;;;;5081475;28;20024;-38
2021/04/19 09:11:39;;;;;;;1.77;1.13;;;19.40;51.40;;;;;;5072313;28;20130;-36
2021/04/19 09:14:10;;;;;;;1.30;1.00;;;19.50;51.50;;;;;;5078383;28;20050;-38
2021/04/19 09:16:41;;;;;;;1.20;1.20;;;19.50;51.20;;;;;;5081340;28;20155;-40
2021/04/19 09:19:07;;;;;;;1.30;1.20;;;19.50;51.10;;;;;;5082933;28;20597;-39
2021/04/19 09:21:38;;;;;;;1.17;1.17;;;19.50;50.90;;;;;;5085481;28;20044;-40
2021/04/19 09:24:05;;;;;;;1.30;1.20;;;19.60;50.90;;;;;;5079562;28;20048;-38
2021/04/19 09:26:49;;;;;;;1.50;1.27;;;19.70;50.90;;;;;;5083103;28;20048;-37
2021/04/19 09:29:30;;;;;;;1.30;1.20;;;19.80;50.60;;;;;;5079432;28;20032;-42
2021/04/19 09:31:55;;;;;;;1.33;1.23;;;19.80;50.30;;;;;;5080659;28;20302;-40
2021/04/19 09:34:40;;;;;;;3.33;1.70;;;19.80;50.40;;;;;;5082041;28;20898;-38
2021/04/19 09:37:07;;;;;;;2.80;1.80;;;19.80;49.90;;;;;;5066122;28;20046;-38
2021/04/19 09:39:42;;;;;;;2.90;2.70;;;19.70;49.50;;;;;;5084567;28;20087;-39
2021/04/19 09:42:08;;;;;;;2.65;2.45;;;19.70;48.80;;;;;;5080370;28;20180;-36
2021/04/19 09:44:34;;;;;;;3.03;2.83;;;19.70;49.00;;;;;;5083015;28;20052;-40
2021/04/19 09:47:00;;;;;;;3.75;3.45;;;19.70;48.70;;;;;;5066600;28;20185;-38
2021/04/19 09:49:25;;;;;;;2.60;2.40;;;19.80;49.10;;;;;;5081024;28;20043;-41
2021/04/19 09:51:51;;;;;;;3.80;3.38;;;19.80;49.10;;;;;;5087130;28;20569;-38
2021/04/19 09:54:18;;;;;;;3.15;2.95;;;19.90;48.50;;;;;;5085163;28;20044;-39
2021/04/19 09:56:48;;;;;;;3.45;3.20;;;19.90;48.20;;;;;;5083906;28;20056;-40
2021/04/19 09:59:18;;;;;;;4.50;3.28;;;19.90;48.30;;;;;;5083590;28;20161;-35
2021/04/19 10:01:52;;;;;;;4.05;3.58;;;20.00;48.10;;;;;;5085293;28;20135;-40
2021/04/19 10:04:18;;;;;;;4.32;3.88;;;20.00;48.00;;;;;;5083643;28;20048;-39
2021/04/19 10:06:50;;;;;;;2.97;2.78;;;20.00;47.80;;;;;;5088044;28;20055;-40
2021/04/19 10:09:17;;;;;;;3.03;2.83;;;20.00;48.80;;;;;;5081107;28;20589;-39
2021/04/19 10:11:46;;;;;;;3.42;3.13;;;20.10;47.20;;;;;;5082778;28;20031;-41
2021/04/19 10:14:13;;;;;;;2.80;2.53;;;20.10;46.60;;;;;;5079151;28;20036;-42
2021/04/19 10:16:43;;;;;;;3.22;2.97;;;20.20;46.90;;;;;;5079257;28;20055;-37
2021/04/19 10:19:09;;;;;;;3.30;2.75;;;20.20;46.80;;;;;;5074304;28;20050;-42
2021/04/19 10:21:38;;;;;;;4.38;2.78;;;20.20;47.40;;;;;;5077014;28;20048;-47
2021/04/19 10:24:04;;;;;;;16.05;3.13;;;20.20;47.40;;;;;;5078117;28;20052;-45
2021/04/19 10:26:30;;;;;;;3.22;2.70;;;20.30;47.40;;;;;;5079972;28;20036;-39
2021/04/19 10:28:56;;;;;;;2.90;2.58;;;20.40;48.00;;;;;;5081479;28;20139;-38
2021/04/19 10:31:21;;;;;;;2.70;2.50;;;20.50;47.20;;;;;;5081404;28;20584;-46
2021/04/19 10:33:48;;;;;;;2.85;2.65;;;20.60;47.10;;;;;;5083953;28;20036;-39
2021/04/19 10:36:22;;;;;;;3.22;2.42;;;20.60;47.00;;;;;;5082961;28;20043;-40
2021/04/19 10:38:52;;;;;;;2.83;2.58;;;20.60;46.10;;;;;;5080523;28;20211;-42
2021/04/19 10:41:34;;;;;;;3.21;2.47;;;20.60;46.80;;;;;;4373251;28;10001317;-40
2021/04/19 10:44:00;;;;;;;3.28;2.97;;;20.60;47.20;;;;;;5081168;28;20051;-40
2021/04/19 10:46:30;;;;;;;6.20;3.60;;;20.70;47.20;;;;;;5080765;28;20127;-39
2021/04/19 10:49:00;;;;;;;3.80;2.78;;;20.60;47.90;;;;;;5084200;28;20036;-40
2021/04/19 10:51:35;;;;;;;4.25;2.63;;;20.60;47.40;;;;;;5082415;28;20053;-38
2021/04/19 10:54:04;;;;;;;3.17;2.88;;;20.70;47.00;;;;;;5083217;28;20048;-36
2021/04/19 10:56:29;;;;;;;4.90;3.60;;;20.80;46.90;;;;;;5081471;28;20121;-38
2021/04/19 10:59:04;;;;;;;6.95;3.25;;;20.60;46.60;;;;;;5080458;28;20467;-38
2021/04/19 11:01:34;;;;;;;6.32;2.83;;;20.60;47.10;;;;;;5067127;28;20043;-39
2021/04/19 11:04:00;;;;;;;3.50;3.20;;;20.70;46.30;;;;;;5057177;28;20062;-38
2021/04/19 11:06:26;;;;;;;4.68;3.45;;;20.80;46.40;;;;;;5076050;28;20063;-39
2021/04/19 11:08:57;;;;;;;2.95;2.65;;;20.70;46.60;;;;;;5070376;28;20044;-41
2021/04/19 11:11:28;;;;;;;3.17;2.85;;;20.70;46.90;;;;;;5073369;28;20078;-40
2021/04/19 11:14:04;;;;;;;3.13;2.83;;;20.80;47.00;;;;;;5076985;28;20055;-37
2021/04/19 11:16:30;;;;;;;3.00;2.70;;;20.80;47.00;;;;;;5078547;28;20054;-46
2021/04/19 11:18:55;;;;;;;2.67;2.47;;;20.80;47.20;;;;;;5080711;28;20048;-39
2021/04/19 11:21:36;;;;;;;4.57;2.95;;;20.70;47.30;;;;;;5073346;28;20139;-36
2021/04/19 11:24:06;;;;;;;3.92;2.75;;;20.70;47.50;;;;;;5077506;28;20097;-35
2021/04/19 11:26:32;;;;;;;2.40;2.20;;;20.70;47.70;;;;;;5078555;28;20048;-39
2021/04/19 11:28:57;;;;;;;2.80;2.40;;;20.80;47.80;;;;;;5079196;28;20040;-41
2021/04/19 11:31:23;;;;;;;2.50;2.30;;;20.70;48.00;;;;;;5079459;28;20036;-40
2021/04/19 11:34:05;;;;;;;2.75;2.00;;;20.80;48.10;;;;;;5082978;28;20078;-37
2021/04/19 11:36:39;;;;;;;2.72;2.53;;;20.90;48.70;;;;;;5082614;28;20047;-36
2021/04/19 11:39:15;;;;;;;2.58;2.42;;;21.00;48.10;;;;;;5079652;28;20044;-40
2021/04/19 11:41:40;;;;;;;2.55;2.35;;;21.10;48.10;;;;;;5077879;28;20078;-40
2021/04/19 11:44:06;;;;;;;2.60;2.40;;;21.20;48.40;;;;;;5081401;28;20076;-37
2021/04/19 11:46:32;;;;;;;2.85;2.60;;;21.30;48.50;;;;;;5081061;28;20043;-39
2021/04/19 11:48:58;;;;;;;3.08;2.63;;;21.30;48.60;;;;;;5080675;28;20051;-41
2021/04/19 11:51:23;;;;;;;3.50;3.20;;;21.40;48.90;;;;;;5075246;28;20039;-41
2021/04/19 11:53:49;;;;;;;4.07;2.95;;;21.40;48.80;;;;;;5079626;28;20048;-40
2021/04/19 11:56:16;;;;;;;3.60;3.03;;;21.40;48.70;;;;;;5076914;28;20529;-36
2021/04/19 11:58:44;;;;;;;3.22;2.53;;;21.40;48.90;;;;;;5081656;28;20048;-39
2021/04/19 12:01:11;;;;;;;3.50;2.65;;;21.30;49.00;;;;;;5078665;28;20044;-44
2021/04/19 12:03:40;;;;;;;3.08;2.80;;;21.30;49.20;;;;;;5082421;28;20074;-43
2021/04/19 12:06:06;;;;;;;2.85;2.65;;;21.30;49.10;;;;;;5076226;28;20092;-42
2021/04/19 12:08:32;;;;;;;4.32;2.63;;;21.30;49.10;;;;;;5078698;28;20593;-41
2021/04/19 12:10:59;;;;;;;4.13;2.78;;;21.30;49.40;;;;;;5081127;28;20038;-40
2021/04/19 12:13:24;;;;;;;2.78;2.58;;;21.40;49.10;;;;;;5078176;28;20066;-38
2021/04/19 12:15:52;;;;;;;2.45;2.13;;;21.40;49.00;;;;;;5083575;28;20051;-37
2021/04/19 12:18:18;;;;;;;4.20;2.72;;;21.40;49.30;;;;;;5083283;28;20083;-38
2021/04/19 12:20:44;;;;;;;2.58;2.38;;;21.40;49.40;;;;;;5078045;28;20068;-41
2021/04/19 12:23:09;;;;;;;3.20;2.90;;;21.30;49.90;;;;;;5082119;28;20045;-42
2021/04/19 12:25:35;;;;;;;8.98;3.00;;;21.30;49.90;;;;;;5084177;28;20048;-39
2021/04/19 12:28:01;;;;;;;3.20;2.90;;;21.20;49.70;;;;;;5083928;28;20520;-44
2021/04/19 12:30:30;;;;;;;3.00;2.80;;;21.20;49.50;;;;;;5086093;28;20033;-37
2021/04/19 12:32:55;;;;;;;4.88;2.92;;;21.10;49.30;;;;;;5083387;28;20556;-37
2021/04/19 12:35:21;;;;;;;3.20;3.00;;;21.20;49.10;;;;;;5080806;28;20080;-39
2021/04/19 12:37:47;;;;;;;4.50;3.00;;;21.10;49.70;;;;;;5075786;28;20520;-37
2021/04/19 12:40:13;;;;;;;5.85;3.35;;;21.10;48.20;;;;;;5074730;28;20048;-39
2021/04/19 12:42:38;;;;;;;11.05;5.07;;;21.30;48.00;;;;;;5083416;28;20102;-39
2021/04/19 12:45:05;;;;;;;30.70;8.98;;;21.20;47.60;;;;;;5080749;28;20578;-38
2021/04/19 12:47:30;;;;;;;38.47;10.40;;;21.20;47.30;;;;;;5081908;28;20103;-38
2021/04/19 12:49:56;;;;;;;30.80;9.30;;;21.10;46.70;;;;;;5081001;28;20489;-38